sensor_id;sensor_type;location;lat;lon;timestamp;temperature;humidity
1367;DHT22;16877;48.810;9.282;2023-04-29T00:01:38;22.50;61.60
1367;DHT22;16877;48.810;9.282;2023-04-29T00:04:06;22.50;61.60
1367;DHT22;16877;48.810;9.282;2023-04-29T00:06:34;22.50;61.50
1367;DHT22;16877;48.810;9.282;2023-04-29T00:09:01;22.50;61.60
1367;DHT22;16877;48.810;9.282;2023-04-29T00:11:29;22.50;61.60
1367;DHT22;16877;48.810;9.282;2023-04-29T00:13:57;22.40;61.50
1367;DHT22;16877;48.810;9.282;2023-04-29T00:16:26;22.40;61.50
1367;DHT22;16877;48.810;9.282;2023-04-29T00:18:53;22.50;61.50
1367;DHT22;16877;48.810;9.282;2023-04-29T00:21:21;22.50;61.50
1367;DHT22;16877;48.810;9.282;2023-04-29T00:23:49;22.50;61.50
1367;DHT22;16877;48.810;9.282;2023-04-29T00:26:17;22.50;61.40
1367;DHT22;16877;48.810;9.282;2023-04-29T00:28:44;22.50;61.40
1367;DHT22;16877;48.810;9.282;2023-04-29T00:31:12;22.50;61.40
1367;DHT22;16877;48.810;9.282;2023-04-29T00:33:41;22.50;61.30
1367;DHT22;16877;48.810;9.282;2023-04-29T00:36:09;22.50;61.40
1367;DHT22;16877;48.810;9.282;2023-04-29T00:38:36;22.50;61.30
1367;DHT22;16877;48.810;9.282;2023-04-29T00:41:04;22.40;61.20
1367;DHT22;16877;48.810;9.282;2023-04-29T00:43:32;22.40;61.30
1367;DHT22;16877;48.810;9.282;2023-04-29T00:45:59;22.40;61.30
1367;DHT22;16877;48.810;9.282;2023-04-29T00:48:27;22.40;61.30
1367;DHT22;16877;48.810;9.282;2023-04-29T00:50:56;22.40;61.30
1367;DHT22;16877;48.810;9.282;2023-04-29T00:53:23;22.40;61.40
1367;DHT22;16877;48.810;9.282;2023-04-29T00:55:51;22.30;61.30
1367;DHT22;16877;48.810;9.282;2023-04-29T00:58:19;22.40;61.40
1367;DHT22;16877;48.810;9.282;2023-04-29T01:00:47;22.30;61.30
1367;DHT22;16877;48.810;9.282;2023-04-29T01:03:15;22.30;61.30
1367;DHT22;16877;48.810;9.282;2023-04-29T01:05:48;22.30;61.30
1367;DHT22;16877;48.810;9.282;2023-04-29T01:08:27;22.30;62.20
1367;DHT22;16877;48.810;9.282;2023-04-29T01:11:02;22.30;61.30
1367;DHT22;16877;48.810;9.282;2023-04-29T01:13:36;22.30;61.30
1367;DHT22;16877;48.810;9.282;2023-04-29T01:16:10;22.30;61.30
1367;DHT22;16877;48.810;9.282;2023-04-29T01:18:41;22.30;61.40
1367;DHT22;16877;48.810;9.282;2023-04-29T01:21:10;22.30;61.30
1367;DHT22;16877;48.810;9.282;2023-04-29T01:23:39;22.20;61.20
1367;DHT22;16877;48.810;9.282;2023-04-29T01:26:07;22.30;61.30
1367;DHT22;16877;48.810;9.282;2023-04-29T01:28:47;22.20;61.00
1367;DHT22;16877;48.810;9.282;2023-04-29T01:31:18;22.20;61.00
1367;DHT22;16877;48.810;9.282;2023-04-29T01:33:57;22.30;61.10
1367;DHT22;16877;48.810;9.282;2023-04-29T01:36:32;22.20;61.10
1367;DHT22;16877;48.810;9.282;2023-04-29T01:39:11;22.30;61.10
1367;DHT22;16877;48.810;9.282;2023-04-29T01:41:42;22.20;60.90
1367;DHT22;16877;48.810;9.282;2023-04-29T01:44:14;22.20;60.90
1367;DHT22;16877;48.810;9.282;2023-04-29T01:46:42;22.20;60.80
1367;DHT22;16877;48.810;9.282;2023-04-29T01:49:10;22.30;61.00
1367;DHT22;16877;48.810;9.282;2023-04-29T01:51:38;22.30;61.00
1367;DHT22;16877;48.810;9.282;2023-04-29T01:54:07;22.30;61.00
1367;DHT22;16877;48.810;9.282;2023-04-29T01:56:35;22.30;60.90
1367;DHT22;16877;48.810;9.282;2023-04-29T01:59:02;22.30;60.90
1367;DHT22;16877;48.810;9.282;2023-04-29T02:01:30;22.30;60.70
1367;DHT22;16877;48.810;9.282;2023-04-29T02:03:58;22.30;60.70
1367;DHT22;16877;48.810;9.282;2023-04-29T02:06:25;22.40;60.90
1367;DHT22;16877;48.810;9.282;2023-04-29T02:08:53;22.30;60.70
1367;DHT22;16877;48.810;9.282;2023-04-29T02:11:22;22.30;60.60
1367;DHT22;16877;48.810;9.282;2023-04-29T02:13:49;22.30;60.40
1367;DHT22;16877;48.810;9.282;2023-04-29T02:16:17;22.30;60.40
1367;DHT22;16877;48.810;9.282;2023-04-29T02:18:44;22.30;60.30
1367;DHT22;16877;48.810;9.282;2023-04-29T02:21:12;22.30;60.20
1367;DHT22;16877;48.810;9.282;2023-04-29T02:23:39;22.30;60.10
1367;DHT22;16877;48.810;9.282;2023-04-29T02:26:07;22.30;60.00
1367;DHT22;16877;48.810;9.282;2023-04-29T02:28:37;22.30;60.00
1367;DHT22;16877;48.810;9.282;2023-04-29T02:31:04;22.30;59.90
1367;DHT22;16877;48.810;9.282;2023-04-29T02:33:31;22.30;59.80
1367;DHT22;16877;48.810;9.282;2023-04-29T02:35:59;22.30;59.80
1367;DHT22;16877;48.810;9.282;2023-04-29T02:38:27;22.30;59.70
1367;DHT22;16877;48.810;9.282;2023-04-29T02:40:54;22.30;59.60
1367;DHT22;16877;48.810;9.282;2023-04-29T02:43:21;22.30;59.60
1367;DHT22;16877;48.810;9.282;2023-04-29T02:45:51;22.30;59.50
1367;DHT22;16877;48.810;9.282;2023-04-29T02:48:20;22.30;59.40
1367;DHT22;16877;48.810;9.282;2023-04-29T02:50:49;22.30;59.40
1367;DHT22;16877;48.810;9.282;2023-04-29T02:53:17;22.20;59.20
1367;DHT22;16877;48.810;9.282;2023-04-29T02:55:45;22.20;59.20
1367;DHT22;16877;48.810;9.282;2023-04-29T02:58:13;22.20;59.10
1367;DHT22;16877;48.810;9.282;2023-04-29T03:00:40;22.20;59.00
1367;DHT22;16877;48.810;9.282;2023-04-29T03:03:10;22.20;58.90
1367;DHT22;16877;48.810;9.282;2023-04-29T03:05:37;22.20;58.90
1367;DHT22;16877;48.810;9.282;2023-04-29T03:08:04;22.10;58.80
1367;DHT22;16877;48.810;9.282;2023-04-29T03:10:32;22.10;58.80
1367;DHT22;16877;48.810;9.282;2023-04-29T03:12:59;22.10;58.70
1367;DHT22;16877;48.810;9.282;2023-04-29T03:15:28;22.10;58.70
1367;DHT22;16877;48.810;9.282;2023-04-29T03:17:55;22.10;58.70
1367;DHT22;16877;48.810;9.282;2023-04-29T03:20:28;22.10;58.60
1367;DHT22;16877;48.810;9.282;2023-04-29T03:22:55;22.10;58.50
1367;DHT22;16877;48.810;9.282;2023-04-29T03:25:23;22.00;58.40
1367;DHT22;16877;48.810;9.282;2023-04-29T03:27:50;22.00;58.40
1367;DHT22;16877;48.810;9.282;2023-04-29T03:30:22;22.00;58.40
1367;DHT22;16877;48.810;9.282;2023-04-29T03:32:51;22.00;58.30
1367;DHT22;16877;48.810;9.282;2023-04-29T03:35:20;21.90;58.20
1367;DHT22;16877;48.810;9.282;2023-04-29T03:38:05;21.90;58.20
1367;DHT22;16877;48.810;9.282;2023-04-29T03:40:32;21.90;58.10
1367;DHT22;16877;48.810;9.282;2023-04-29T03:43:00;21.90;58.10
1367;DHT22;16877;48.810;9.282;2023-04-29T03:45:28;21.80;57.90
1367;DHT22;16877;48.810;9.282;2023-04-29T03:47:56;21.80;57.80
1367;DHT22;16877;48.810;9.282;2023-04-29T03:50:24;21.80;57.80
1367;DHT22;16877;48.810;9.282;2023-04-29T03:53:01;21.80;57.70
1367;DHT22;16877;48.810;9.282;2023-04-29T03:55:31;21.80;57.70
1367;DHT22;16877;48.810;9.282;2023-04-29T03:57:58;21.70;57.50
1367;DHT22;16877;48.810;9.282;2023-04-29T04:00:26;21.70;57.50
1367;DHT22;16877;48.810;9.282;2023-04-29T04:02:56;21.70;57.50
1367;DHT22;16877;48.810;9.282;2023-04-29T04:05:35;21.70;57.50
1367;DHT22;16877;48.810;9.282;2023-04-29T04:08:05;21.70;57.50
1367;DHT22;16877;48.810;9.282;2023-04-29T04:10:35;21.60;57.40
1367;DHT22;16877;48.810;9.282;2023-04-29T04:13:06;21.60;57.40
1367;DHT22;16877;48.810;9.282;2023-04-29T04:15:33;21.60;57.40
1367;DHT22;16877;48.810;9.282;2023-04-29T04:18:01;21.60;57.30
1367;DHT22;16877;48.810;9.282;2023-04-29T04:20:32;21.60;57.30
1367;DHT22;16877;48.810;9.282;2023-04-29T04:23:00;21.60;57.30
1367;DHT22;16877;48.810;9.282;2023-04-29T04:25:28;21.60;57.20
1367;DHT22;16877;48.810;9.282;2023-04-29T04:28:00;21.60;57.20
1367;DHT22;16877;48.810;9.282;2023-04-29T04:30:27;21.60;57.20
1367;DHT22;16877;48.810;9.282;2023-04-29T04:32:55;21.50;57.10
1367;DHT22;16877;48.810;9.282;2023-04-29T04:35:24;21.50;57.10
1367;DHT22;16877;48.810;9.282;2023-04-29T04:37:51;21.50;57.00
1367;DHT22;16877;48.810;9.282;2023-04-29T04:40:25;21.50;57.00
1367;DHT22;16877;48.810;9.282;2023-04-29T04:42:59;21.50;57.10
1367;DHT22;16877;48.810;9.282;2023-04-29T04:45:27;21.50;57.10
1367;DHT22;16877;48.810;9.282;2023-04-29T04:47:55;21.50;57.20
1367;DHT22;16877;48.810;9.282;2023-04-29T04:50:22;21.40;57.20
1367;DHT22;16877;48.810;9.282;2023-04-29T04:52:50;21.50;57.40
1367;DHT22;16877;48.810;9.282;2023-04-29T04:55:18;21.50;57.40
1367;DHT22;16877;48.810;9.282;2023-04-29T04:58:00;21.50;57.40
1367;DHT22;16877;48.810;9.282;2023-04-29T05:00:28;21.50;57.60
1367;DHT22;16877;48.810;9.282;2023-04-29T05:02:55;21.50;57.70
1367;DHT22;16877;48.810;9.282;2023-04-29T05:05:23;21.60;57.80
1367;DHT22;16877;48.810;9.282;2023-04-29T05:07:51;21.60;57.90
1367;DHT22;16877;48.810;9.282;2023-04-29T05:10:18;21.60;58.00
1367;DHT22;16877;48.810;9.282;2023-04-29T05:13:03;21.60;58.00
1367;DHT22;16877;48.810;9.282;2023-04-29T05:15:35;21.60;58.10
1367;DHT22;16877;48.810;9.282;2023-04-29T05:18:02;21.60;58.10
1367;DHT22;16877;48.810;9.282;2023-04-29T05:20:30;21.70;58.20
1367;DHT22;16877;48.810;9.282;2023-04-29T05:22:58;21.70;58.20
1367;DHT22;16877;48.810;9.282;2023-04-29T05:25:29;21.70;58.20
1367;DHT22;16877;48.810;9.282;2023-04-29T05:27:56;21.80;58.30
1367;DHT22;16877;48.810;9.282;2023-04-29T05:30:28;21.80;58.30
1367;DHT22;16877;48.810;9.282;2023-04-29T05:33:10;21.80;58.30
1367;DHT22;16877;48.810;9.282;2023-04-29T05:35:38;21.80;58.50
1367;DHT22;16877;48.810;9.282;2023-04-29T05:38:06;21.80;58.50
1367;DHT22;16877;48.810;9.282;2023-04-29T05:40:33;21.80;58.50
1367;DHT22;16877;48.810;9.282;2023-04-29T05:43:01;21.80;58.60
1367;DHT22;16877;48.810;9.282;2023-04-29T05:45:31;21.80;58.70
1367;DHT22;16877;48.810;9.282;2023-04-29T05:48:00;21.80;58.70
1367;DHT22;16877;48.810;9.282;2023-04-29T05:50:28;21.80;58.70
1367;DHT22;16877;48.810;9.282;2023-04-29T05:53:10;21.80;58.80
1367;DHT22;16877;48.810;9.282;2023-04-29T05:55:39;21.90;58.80
1367;DHT22;16877;48.810;9.282;2023-04-29T05:58:09;21.90;58.70
1367;DHT22;16877;48.810;9.282;2023-04-29T06:00:50;22.00;58.80
1367;DHT22;16877;48.810;9.282;2023-04-29T06:03:22;22.00;58.70
1367;DHT22;16877;48.810;9.282;2023-04-29T06:05:50;22.10;58.80
1367;DHT22;16877;48.810;9.282;2023-04-29T06:08:23;22.10;58.70
1367;DHT22;16877;48.810;9.282;2023-04-29T06:10:50;22.40;58.90
1367;DHT22;16877;48.810;9.282;2023-04-29T06:13:18;22.80;58.40
1367;DHT22;16877;48.810;9.282;2023-04-29T06:15:56;23.20;57.90
1367;DHT22;16877;48.810;9.282;2023-04-29T06:18:25;23.50;57.30
1367;DHT22;16877;48.810;9.282;2023-04-29T06:20:54;23.70;57.00
1367;DHT22;16877;48.810;9.282;2023-04-29T06:23:36;23.90;56.80
1367;DHT22;16877;48.810;9.282;2023-04-29T06:26:05;24.00;56.50
1367;DHT22;16877;48.810;9.282;2023-04-29T06:28:36;24.00;56.50
1367;DHT22;16877;48.810;9.282;2023-04-29T06:31:12;23.90;56.30
1367;DHT22;16877;48.810;9.282;2023-04-29T06:33:40;23.80;56.30
1367;DHT22;16877;48.810;9.282;2023-04-29T06:36:11;23.80;56.50
1367;DHT22;16877;48.810;9.282;2023-04-29T06:38:44;23.90;56.30
1367;DHT22;16877;48.810;9.282;2023-04-29T06:41:30;23.90;56.00
1367;DHT22;16877;48.810;9.282;2023-04-29T06:43:59;23.90;56.00
1367;DHT22;16877;48.810;9.282;2023-04-29T06:46:28;23.90;56.00
1367;DHT22;16877;48.810;9.282;2023-04-29T06:49:01;23.80;56.50
1367;DHT22;16877;48.810;9.282;2023-04-29T06:51:29;23.80;55.90
1367;DHT22;16877;48.810;9.282;2023-04-29T06:53:57;23.70;55.70
1367;DHT22;16877;48.810;9.282;2023-04-29T06:56:24;23.80;55.80
1367;DHT22;16877;48.810;9.282;2023-04-29T06:58:52;23.80;55.80
1367;DHT22;16877;48.810;9.282;2023-04-29T07:01:41;23.80;55.70
1367;DHT22;16877;48.810;9.282;2023-04-29T07:04:09;23.90;55.70
1367;DHT22;16877;48.810;9.282;2023-04-29T07:06:37;23.80;55.60
1367;DHT22;16877;48.810;9.282;2023-04-29T07:09:11;23.70;55.60
1367;DHT22;16877;48.810;9.282;2023-04-29T07:11:39;23.60;55.60
1367;DHT22;16877;48.810;9.282;2023-04-29T07:14:06;23.60;56.40
1367;DHT22;16877;48.810;9.282;2023-04-29T07:16:36;23.80;56.50
1367;DHT22;16877;48.810;9.282;2023-04-29T07:19:07;24.20;56.10
1367;DHT22;16877;48.810;9.282;2023-04-29T07:21:49;24.50;55.60
1367;DHT22;16877;48.810;9.282;2023-04-29T07:24:24;24.40;54.10
1367;DHT22;16877;48.810;9.282;2023-04-29T07:27:10;24.30;54.00
1367;DHT22;16877;48.810;9.282;2023-04-29T07:29:39;24.20;53.90
1367;DHT22;16877;48.810;9.282;2023-04-29T07:32:23;23.90;53.80
1367;DHT22;16877;48.810;9.282;2023-04-29T07:35:06;23.70;54.10
1367;DHT22;16877;48.810;9.282;2023-04-29T07:37:36;23.60;54.30
1367;DHT22;16877;48.810;9.282;2023-04-29T07:40:07;23.50;54.40
1367;DHT22;16877;48.810;9.282;2023-04-29T07:42:37;23.40;54.40
1367;DHT22;16877;48.810;9.282;2023-04-29T07:45:14;23.30;54.40
1367;DHT22;16877;48.810;9.282;2023-04-29T07:47:46;23.30;54.50
1367;DHT22;16877;48.810;9.282;2023-04-29T07:50:14;23.40;54.50
1367;DHT22;16877;48.810;9.282;2023-04-29T07:52:42;23.30;54.20
1367;DHT22;16877;48.810;9.282;2023-04-29T07:55:10;23.30;54.20
1367;DHT22;16877;48.810;9.282;2023-04-29T07:57:40;23.30;54.40
1367;DHT22;16877;48.810;9.282;2023-04-29T08:00:09;23.20;54.40
1367;DHT22;16877;48.810;9.282;2023-04-29T08:02:41;23.20;54.40
1367;DHT22;16877;48.810;9.282;2023-04-29T08:05:11;23.20;54.40
1367;DHT22;16877;48.810;9.282;2023-04-29T08:07:38;23.10;54.30
1367;DHT22;16877;48.810;9.282;2023-04-29T08:10:07;23.10;54.40
1367;DHT22;16877;48.810;9.282;2023-04-29T08:12:39;23.10;54.50
1367;DHT22;16877;48.810;9.282;2023-04-29T08:15:07;23.00;54.40
1367;DHT22;16877;48.810;9.282;2023-04-29T08:17:40;23.00;54.60
1367;DHT22;16877;48.810;9.282;2023-04-29T08:20:25;22.90;54.70
1367;DHT22;16877;48.810;9.282;2023-04-29T08:23:08;22.90;54.80
1367;DHT22;16877;48.810;9.282;2023-04-29T08:25:39;22.80;54.90
1367;DHT22;16877;48.810;9.282;2023-04-29T08:28:07;22.70;55.00
1367;DHT22;16877;48.810;9.282;2023-04-29T08:30:49;22.60;55.10
1367;DHT22;16877;48.810;9.282;2023-04-29T08:33:21;22.60;55.20
1367;DHT22;16877;48.810;9.282;2023-04-29T08:35:57;22.70;55.30
1367;DHT22;16877;48.810;9.282;2023-04-29T08:38:25;22.70;55.40
1367;DHT22;16877;48.810;9.282;2023-04-29T08:40:53;22.70;55.30
1367;DHT22;16877;48.810;9.282;2023-04-29T08:43:26;22.70;55.50
1367;DHT22;16877;48.810;9.282;2023-04-29T08:45:58;22.70;55.70
1367;DHT22;16877;48.810;9.282;2023-04-29T08:48:30;22.80;55.70
1367;DHT22;16877;48.810;9.282;2023-04-29T08:51:07;22.80;55.70
1367;DHT22;16877;48.810;9.282;2023-04-29T08:53:41;22.80;55.70
1367;DHT22;16877;48.810;9.282;2023-04-29T08:56:16;22.80;55.40
1367;DHT22;16877;48.810;9.282;2023-04-29T08:58:57;22.90;55.50
1367;DHT22;16877;48.810;9.282;2023-04-29T09:01:41;22.90;55.30
1367;DHT22;16877;48.810;9.282;2023-04-29T09:04:25;22.90;55.10
1367;DHT22;16877;48.810;9.282;2023-04-29T09:07:18;22.80;55.00
1367;DHT22;16877;48.810;9.282;2023-04-29T09:10:01;23.00;55.10
1367;DHT22;16877;48.810;9.282;2023-04-29T09:12:32;23.10;55.20
1367;DHT22;16877;48.810;9.282;2023-04-29T09:15:17;23.10;55.30
1367;DHT22;16877;48.810;9.282;2023-04-29T09:17:46;23.30;55.40
1367;DHT22;16877;48.810;9.282;2023-04-29T09:20:25;23.40;55.30
1367;DHT22;16877;48.810;9.282;2023-04-29T09:23:03;23.60;54.80
1367;DHT22;16877;48.810;9.282;2023-04-29T09:25:30;23.80;54.70
1367;DHT22;16877;48.810;9.282;2023-04-29T09:28:15;24.00;54.50
1367;DHT22;16877;48.810;9.282;2023-04-29T09:30:49;24.20;54.30
1367;DHT22;16877;48.810;9.282;2023-04-29T09:33:17;24.20;54.10
1367;DHT22;16877;48.810;9.282;2023-04-29T09:35:45;24.30;53.70
1367;DHT22;16877;48.810;9.282;2023-04-29T09:38:15;24.40;53.40
1367;DHT22;16877;48.810;9.282;2023-04-29T09:40:43;24.50;53.10
1367;DHT22;16877;48.810;9.282;2023-04-29T09:43:12;24.60;53.10
1367;DHT22;16877;48.810;9.282;2023-04-29T09:45:42;24.60;53.10
1367;DHT22;16877;48.810;9.282;2023-04-29T09:48:10;24.80;53.10
1367;DHT22;16877;48.810;9.282;2023-04-29T09:50:39;25.20;53.20
1367;DHT22;16877;48.810;9.282;2023-04-29T09:53:29;25.50;52.80
1367;DHT22;16877;48.810;9.282;2023-04-29T09:56:00;25.70;52.80
1367;DHT22;16877;48.810;9.282;2023-04-29T09:58:28;25.90;52.60
1367;DHT22;16877;48.810;9.282;2023-04-29T10:01:01;26.00;51.90
1367;DHT22;16877;48.810;9.282;2023-04-29T10:03:31;26.60;51.40
1367;DHT22;16877;48.810;9.282;2023-04-29T10:05:59;27.10;50.80
1367;DHT22;16877;48.810;9.282;2023-04-29T10:08:29;27.00;50.20
1367;DHT22;16877;48.810;9.282;2023-04-29T10:10:58;27.00;50.10
1367;DHT22;16877;48.810;9.282;2023-04-29T10:13:27;27.00;49.90
1367;DHT22;16877;48.810;9.282;2023-04-29T10:15:59;27.00;49.80
1367;DHT22;16877;48.810;9.282;2023-04-29T10:18:34;27.20;49.80
1367;DHT22;16877;48.810;9.282;2023-04-29T10:21:06;27.70;49.40
1367;DHT22;16877;48.810;9.282;2023-04-29T10:23:36;27.90;49.00
1367;DHT22;16877;48.810;9.282;2023-04-29T10:26:05;27.90;48.70
1367;DHT22;16877;48.810;9.282;2023-04-29T10:28:35;28.00;47.80
1367;DHT22;16877;48.810;9.282;2023-04-29T10:31:05;28.10;47.40
1367;DHT22;16877;48.810;9.282;2023-04-29T10:33:35;28.70;47.60
1367;DHT22;16877;48.810;9.282;2023-04-29T10:36:03;28.60;47.50
1367;DHT22;16877;48.810;9.282;2023-04-29T10:38:38;28.80;47.30
1367;DHT22;16877;48.810;9.282;2023-04-29T10:41:09;29.00;46.80
1367;DHT22;16877;48.810;9.282;2023-04-29T10:43:41;29.40;46.60
1367;DHT22;16877;48.810;9.282;2023-04-29T10:46:20;29.30;46.50
1367;DHT22;16877;48.810;9.282;2023-04-29T10:48:48;29.10;46.20
1367;DHT22;16877;48.810;9.282;2023-04-29T10:51:30;29.50;45.90
1367;DHT22;16877;48.810;9.282;2023-04-29T10:54:01;29.30;45.70
1367;DHT22;16877;48.810;9.282;2023-04-29T10:56:36;29.20;45.80
1367;DHT22;16877;48.810;9.282;2023-04-29T10:59:04;29.20;45.70
1367;DHT22;16877;48.810;9.282;2023-04-29T11:01:51;29.00;45.80
1367;DHT22;16877;48.810;9.282;2023-04-29T11:04:19;28.90;45.90
1367;DHT22;16877;48.810;9.282;2023-04-29T11:06:50;28.80;45.80
1367;DHT22;16877;48.810;9.282;2023-04-29T11:09:23;28.70;45.60
1367;DHT22;16877;48.810;9.282;2023-04-29T11:11:58;28.70;45.60
1367;DHT22;16877;48.810;9.282;2023-04-29T11:14:30;28.70;45.50
1367;DHT22;16877;48.810;9.282;2023-04-29T11:16:59;28.70;45.20
1367;DHT22;16877;48.810;9.282;2023-04-29T11:19:31;28.50;45.10
1367;DHT22;16877;48.810;9.282;2023-04-29T11:22:09;28.40;45.10
1367;DHT22;16877;48.810;9.282;2023-04-29T11:24:50;28.50;45.20
1367;DHT22;16877;48.810;9.282;2023-04-29T11:27:18;28.70;45.00
1367;DHT22;16877;48.810;9.282;2023-04-29T11:29:48;28.70;45.10
1367;DHT22;16877;48.810;9.282;2023-04-29T11:32:33;28.80;45.10
1367;DHT22;16877;48.810;9.282;2023-04-29T11:35:08;28.90;44.80
1367;DHT22;16877;48.810;9.282;2023-04-29T11:37:36;28.80;44.40
1367;DHT22;16877;48.810;9.282;2023-04-29T11:40:08;28.70;44.50
1367;DHT22;16877;48.810;9.282;2023-04-29T11:42:43;28.60;44.50
1367;DHT22;16877;48.810;9.282;2023-04-29T11:45:11;28.60;44.60
1367;DHT22;16877;48.810;9.282;2023-04-29T11:47:42;28.70;44.90
1367;DHT22;16877;48.810;9.282;2023-04-29T11:50:11;28.60;45.20
1367;DHT22;16877;48.810;9.282;2023-04-29T11:52:41;28.50;45.30
1367;DHT22;16877;48.810;9.282;2023-04-29T11:55:11;28.40;45.50
1367;DHT22;16877;48.810;9.282;2023-04-29T11:57:39;28.40;45.70
1367;DHT22;16877;48.810;9.282;2023-04-29T12:00:08;28.40;45.70
1367;DHT22;16877;48.810;9.282;2023-04-29T12:02:36;28.50;45.80
1367;DHT22;16877;48.810;9.282;2023-04-29T12:05:06;28.60;45.90
1367;DHT22;16877;48.810;9.282;2023-04-29T12:07:33;28.60;45.90
1367;DHT22;16877;48.810;9.282;2023-04-29T12:10:01;28.80;45.90
1367;DHT22;16877;48.810;9.282;2023-04-29T12:12:44;29.30;45.60
1367;DHT22;16877;48.810;9.282;2023-04-29T12:15:12;29.80;45.20
1367;DHT22;16877;48.810;9.282;2023-04-29T12:17:41;30.30;44.60
1367;DHT22;16877;48.810;9.282;2023-04-29T12:20:09;30.70;44.50
1367;DHT22;16877;48.810;9.282;2023-04-29T12:22:37;31.20;43.90
1367;DHT22;16877;48.810;9.282;2023-04-29T12:25:05;31.20;43.20
1367;DHT22;16877;48.810;9.282;2023-04-29T12:27:34;30.90;43.00
1367;DHT22;16877;48.810;9.282;2023-04-29T12:30:05;30.80;42.70
1367;DHT22;16877;48.810;9.282;2023-04-29T12:32:34;30.80;42.50
1367;DHT22;16877;48.810;9.282;2023-04-29T12:35:01;31.00;42.80
1367;DHT22;16877;48.810;9.282;2023-04-29T12:37:29;31.00;42.50
1367;DHT22;16877;48.810;9.282;2023-04-29T12:39:58;31.50;42.50
1367;DHT22;16877;48.810;9.282;2023-04-29T12:42:35;31.60;42.90
1367;DHT22;16877;48.810;9.282;2023-04-29T12:45:07;32.10;42.40
1367;DHT22;16877;48.810;9.282;2023-04-29T12:47:35;32.30;41.40
1367;DHT22;16877;48.810;9.282;2023-04-29T12:50:02;31.40;40.80
1367;DHT22;16877;48.810;9.282;2023-04-29T12:52:30;30.90;41.60
1367;DHT22;16877;48.810;9.282;2023-04-29T12:55:00;30.40;42.30
1367;DHT22;16877;48.810;9.282;2023-04-29T12:57:29;30.40;42.90
1367;DHT22;16877;48.810;9.282;2023-04-29T12:59:58;30.20;42.30
1367;DHT22;16877;48.810;9.282;2023-04-29T13:02:30;30.10;41.80
1367;DHT22;16877;48.810;9.282;2023-04-29T13:05:00;29.70;42.50
1367;DHT22;16877;48.810;9.282;2023-04-29T13:07:32;29.80;43.50
1367;DHT22;16877;48.810;9.282;2023-04-29T13:10:00;29.60;43.20
1367;DHT22;16877;48.810;9.282;2023-04-29T13:12:43;29.70;43.20
1367;DHT22;16877;48.810;9.282;2023-04-29T13:15:25;29.60;43.60
1367;DHT22;16877;48.810;9.282;2023-04-29T13:17:57;29.50;44.00
1367;DHT22;16877;48.810;9.282;2023-04-29T13:20:39;29.40;43.80
1367;DHT22;16877;48.810;9.282;2023-04-29T13:23:12;28.90;43.70
1367;DHT22;16877;48.810;9.282;2023-04-29T13:25:43;28.60;44.50
1367;DHT22;16877;48.810;9.282;2023-04-29T13:28:12;28.80;44.70
1367;DHT22;16877;48.810;9.282;2023-04-29T13:30:58;28.70;44.60
1367;DHT22;16877;48.810;9.282;2023-04-29T13:33:27;28.20;44.30
1367;DHT22;16877;48.810;9.282;2023-04-29T13:36:06;28.00;44.50
1367;DHT22;16877;48.810;9.282;2023-04-29T13:38:34;28.20;45.10
1367;DHT22;16877;48.810;9.282;2023-04-29T13:41:17;28.30;44.90
1367;DHT22;16877;48.810;9.282;2023-04-29T13:43:44;28.40;44.20
1367;DHT22;16877;48.810;9.282;2023-04-29T13:46:12;28.70;44.50
1367;DHT22;16877;48.810;9.282;2023-04-29T13:48:56;28.90;43.60
1367;DHT22;16877;48.810;9.282;2023-04-29T13:51:24;28.80;43.40
1367;DHT22;16877;48.810;9.282;2023-04-29T13:53:52;29.10;43.90
1367;DHT22;16877;48.810;9.282;2023-04-29T13:56:34;29.60;43.80
1367;DHT22;16877;48.810;9.282;2023-04-29T13:59:06;29.70;43.20
1367;DHT22;16877;48.810;9.282;2023-04-29T14:01:34;29.80;42.70
1367;DHT22;16877;48.810;9.282;2023-04-29T14:04:04;30.00;42.80
1367;DHT22;16877;48.810;9.282;2023-04-29T14:06:33;30.60;42.50
1367;DHT22;16877;48.810;9.282;2023-04-29T14:09:02;30.50;41.70
1367;DHT22;16877;48.810;9.282;2023-04-29T14:11:42;30.60;41.90
1367;DHT22;16877;48.810;9.282;2023-04-29T14:14:24;30.50;41.80
1367;DHT22;16877;48.810;9.282;2023-04-29T14:17:06;30.80;41.80
1367;DHT22;16877;48.810;9.282;2023-04-29T14:19:50;30.80;41.50
1367;DHT22;16877;48.810;9.282;2023-04-29T14:22:28;30.80;41.40
1367;DHT22;16877;48.810;9.282;2023-04-29T14:25:08;30.90;41.60
1367;DHT22;16877;48.810;9.282;2023-04-29T14:27:37;31.00;41.30
1367;DHT22;16877;48.810;9.282;2023-04-29T14:30:06;31.00;41.10
1367;DHT22;16877;48.810;9.282;2023-04-29T14:32:35;31.10;40.80
1367;DHT22;16877;48.810;9.282;2023-04-29T14:35:20;31.10;40.50
1367;DHT22;16877;48.810;9.282;2023-04-29T14:38:02;30.90;39.90
1367;DHT22;16877;48.810;9.282;2023-04-29T14:40:45;30.90;40.30
1367;DHT22;16877;48.810;9.282;2023-04-29T14:43:27;30.80;40.10
1367;DHT22;16877;48.810;9.282;2023-04-29T14:45:55;30.90;40.00
1367;DHT22;16877;48.810;9.282;2023-04-29T14:48:23;30.80;39.70
1367;DHT22;16877;48.810;9.282;2023-04-29T14:50:52;30.90;40.00
1367;DHT22;16877;48.810;9.282;2023-04-29T14:53:20;30.60;39.60
1367;DHT22;16877;48.810;9.282;2023-04-29T14:55:52;30.40;39.70
1367;DHT22;16877;48.810;9.282;2023-04-29T14:58:20;30.40;39.90
1367;DHT22;16877;48.810;9.282;2023-04-29T15:00:47;30.40;40.20
1367;DHT22;16877;48.810;9.282;2023-04-29T15:03:20;30.00;40.20
1367;DHT22;16877;48.810;9.282;2023-04-29T15:06:04;30.00;40.60
1367;DHT22;16877;48.810;9.282;2023-04-29T15:08:32;29.80;40.80
1367;DHT22;16877;48.810;9.282;2023-04-29T15:11:14;29.50;41.10
1367;DHT22;16877;48.810;9.282;2023-04-29T15:13:56;29.00;41.20
1367;DHT22;16877;48.810;9.282;2023-04-29T15:16:25;28.90;42.00
1367;DHT22;16877;48.810;9.282;2023-04-29T15:18:56;28.60;42.20
1367;DHT22;16877;48.810;9.282;2023-04-29T15:21:25;28.30;42.80
1367;DHT22;16877;48.810;9.282;2023-04-29T15:23:53;28.20;43.70
1367;DHT22;16877;48.810;9.282;2023-04-29T15:26:21;28.00;43.40
1367;DHT22;16877;48.810;9.282;2023-04-29T15:29:03;28.20;44.10
1367;DHT22;16877;48.810;9.282;2023-04-29T15:31:45;28.10;44.20
1367;DHT22;16877;48.810;9.282;2023-04-29T15:34:16;28.00;44.40
1367;DHT22;16877;48.810;9.282;2023-04-29T15:37:00;27.80;44.50
1367;DHT22;16877;48.810;9.282;2023-04-29T15:39:42;27.80;45.30
1367;DHT22;16877;48.810;9.282;2023-04-29T15:42:11;27.50;44.80
1367;DHT22;16877;48.810;9.282;2023-04-29T15:44:54;27.30;45.00
1367;DHT22;16877;48.810;9.282;2023-04-29T15:47:36;27.00;45.40
1367;DHT22;16877;48.810;9.282;2023-04-29T15:50:19;27.00;46.10
1367;DHT22;16877;48.810;9.282;2023-04-29T15:53:03;26.70;45.60
1367;DHT22;16877;48.810;9.282;2023-04-29T15:55:45;26.70;46.10
1367;DHT22;16877;48.810;9.282;2023-04-29T15:58:27;27.00;46.30
1367;DHT22;16877;48.810;9.282;2023-04-29T16:00:56;27.00;46.00
1367;DHT22;16877;48.810;9.282;2023-04-29T16:03:24;27.00;46.00
1367;DHT22;16877;48.810;9.282;2023-04-29T16:06:03;26.90;46.10
1367;DHT22;16877;48.810;9.282;2023-04-29T16:08:32;26.80;46.20
1367;DHT22;16877;48.810;9.282;2023-04-29T16:11:15;26.70;46.10
1367;DHT22;16877;48.810;9.282;2023-04-29T16:13:44;26.70;46.20